11°C Temp
5°C Dewpoint
% Humidity
Temperature
13 KM/H
8 MPH
7 KTS
150°
South South
East

Wind Speed
Clear
Conditions
Pressure 1017.92 (hPa) - 30.06 (in)
Visibility 6.2 (mi) - 10.0 (km)

Current Conditions
YPPH
Location 20(km)
Metar :YPPH 022100Z 15007KT CAVOK 11/05 Q1018
Fri 3rd April 05:00 am

Airport
  Metar Aviation API Data Provided by https://www.checkwx.com/ PHP scripts by weather34.com ©2020